createdAt,value
2023-04-18T00:01:25.130Z,9.01
2023-04-18T00:03:52.179Z,9.02
2023-04-18T00:06:19.503Z,8.96
2023-04-18T00:08:46.696Z,8.90
2023-04-18T00:11:13.346Z,8.97
2023-04-18T00:13:40.832Z,8.96
2023-04-18T00:16:13.357Z,8.96
2023-04-18T00:18:40.371Z,8.92
2023-04-18T00:21:08.839Z,8.99
2023-04-18T00:23:36.097Z,9.02
2023-04-18T00:26:03.093Z,9.02
2023-04-18T00:28:29.924Z,9.00
2023-04-18T00:30:56.715Z,9.08
2023-04-18T00:33:23.627Z,9.01
2023-04-18T00:35:50.322Z,8.93
2023-04-18T00:38:17.056Z,8.96
2023-04-18T00:40:43.802Z,8.83
2023-04-18T00:43:13.606Z,8.87
2023-04-18T00:45:40.291Z,8.73
2023-04-18T00:48:07.075Z,8.81
2023-04-18T00:50:33.826Z,8.70
2023-04-18T00:53:00.696Z,8.83
2023-04-18T00:55:27.367Z,8.83
2023-04-18T00:57:54.143Z,8.85
2023-04-18T01:00:21.042Z,8.73
2023-04-18T01:02:49.903Z,8.52
2023-04-18T01:05:18.597Z,8.65
2023-04-18T01:07:45.621Z,8.60
2023-04-18T01:10:12.417Z,8.63
2023-04-18T01:12:39.834Z,8.64
2023-04-18T01:15:07.278Z,8.57
2023-04-18T01:17:36.803Z,8.47
2023-04-18T01:20:06.368Z,8.51
2023-04-18T01:22:33.756Z,8.54
2023-04-18T01:25:00.600Z,8.55
2023-04-18T01:27:27.333Z,8.57
2023-04-18T01:29:54.986Z,8.49
2023-04-18T01:32:22.331Z,8.49
2023-04-18T01:34:49.126Z,8.48
2023-04-18T01:37:16.004Z,8.45
2023-04-18T01:39:42.694Z,8.37
2023-04-18T01:42:09.391Z,8.30
2023-04-18T01:44:36.306Z,8.33
2023-04-18T01:47:05.824Z,8.29
2023-04-18T01:49:32.448Z,8.13
2023-04-18T01:51:59.254Z,8.19
2023-04-18T01:54:25.887Z,8.16
2023-04-18T01:56:52.575Z,8.19
2023-04-18T01:59:19.262Z,8.17
2023-04-18T02:01:46.263Z,8.18
2023-04-18T02:04:13.231Z,8.11
2023-04-18T02:06:40.205Z,8.13
2023-04-18T02:09:06.839Z,8.11
2023-04-18T02:11:33.484Z,8.05
2023-04-18T02:14:00.175Z,8.03
2023-04-18T02:16:26.891Z,7.99
2023-04-18T02:18:53.824Z,8.01
2023-04-18T02:21:22.089Z,7.99
2023-04-18T02:23:48.979Z,7.97
2023-04-18T02:26:16.275Z,7.97
2023-04-18T02:28:43.116Z,7.87
2023-04-18T02:31:14.896Z,7.93
2023-04-18T02:33:47.256Z,7.82
2023-04-18T02:36:13.892Z,7.67
2023-04-18T02:38:41.784Z,7.77
2023-04-18T02:41:08.485Z,7.57
2023-04-18T02:43:35.192Z,7.81
2023-04-18T02:46:01.962Z,7.75
2023-04-18T02:48:28.686Z,7.74
2023-04-18T02:51:03.417Z,7.74
2023-04-18T02:53:30.318Z,7.72
2023-04-18T02:55:57.144Z,7.74
2023-04-18T02:58:24.082Z,7.71
2023-04-18T03:00:53.037Z,7.69
2023-04-18T03:03:19.888Z,7.67
2023-04-18T03:05:46.634Z,7.53
2023-04-18T03:08:13.249Z,7.46
2023-04-18T03:10:40.213Z,7.65
2023-04-18T03:13:06.903Z,7.57
2023-04-18T03:15:33.901Z,7.63
2023-04-18T03:18:00.738Z,7.65
2023-04-18T03:20:27.426Z,7.64
2023-04-18T03:22:54.026Z,7.55
2023-04-18T03:25:22.551Z,7.60
2023-04-18T03:27:49.153Z,7.45
2023-04-18T03:30:17.596Z,7.51
2023-04-18T03:32:44.379Z,7.50
2023-04-18T03:35:11.339Z,7.68
2023-04-18T03:37:38.242Z,7.69
2023-04-18T03:40:05.680Z,7.47
2023-04-18T03:42:32.411Z,7.70
2023-04-18T03:44:59.112Z,7.67
2023-04-18T03:47:31.610Z,7.74
2023-04-18T03:49:58.769Z,7.67
2023-04-18T03:52:25.844Z,7.68
2023-04-18T03:54:53.344Z,7.71
2023-04-18T03:57:20.105Z,7.73
2023-04-18T03:59:48.003Z,7.62
2023-04-18T04:02:14.891Z,7.61
2023-04-18T04:04:41.770Z,7.73
2023-04-18T04:07:08.440Z,7.71
2023-04-18T04:09:35.047Z,7.73
2023-04-18T04:12:03.270Z,7.80
2023-04-18T04:14:29.888Z,7.81
2023-04-18T04:16:56.584Z,7.65
2023-04-18T04:19:23.212Z,7.69
2023-04-18T04:21:50.118Z,7.89
2023-04-18T04:24:17.006Z,7.94
2023-04-18T04:26:43.657Z,8.08
2023-04-18T04:29:10.993Z,8.13
2023-04-18T04:31:37.806Z,8.19
2023-04-18T04:34:05.073Z,8.29
2023-04-18T04:36:33.626Z,8.22
2023-04-18T04:39:02.193Z,8.38
2023-04-18T04:41:29.590Z,8.26
2023-04-18T04:43:56.341Z,8.09
2023-04-18T04:46:26.274Z,8.35
2023-04-18T04:48:54.855Z,8.51
2023-04-18T04:51:21.641Z,8.48
2023-04-18T04:53:48.248Z,8.53
2023-04-18T04:56:14.975Z,8.53
2023-04-18T04:58:41.782Z,8.44
2023-04-18T05:03:56.665Z,8.46
2023-04-18T05:06:24.406Z,8.45
2023-04-18T05:08:51.214Z,8.41
2023-04-18T05:11:18.064Z,8.48
2023-04-18T05:13:44.915Z,8.93
2023-04-18T05:16:12.268Z,8.98
2023-04-18T05:18:40.491Z,8.93
2023-04-18T05:21:07.715Z,8.97
2023-04-18T05:23:37.497Z,8.97
2023-04-18T05:26:05.726Z,8.72
2023-04-18T05:28:32.979Z,8.59
2023-04-18T05:31:04.824Z,8.62
2023-04-18T05:33:32.237Z,8.56
2023-04-18T05:35:59.803Z,8.65
2023-04-18T05:38:26.774Z,8.65
2023-04-18T05:40:55.730Z,8.53
2023-04-18T05:43:22.776Z,8.71
2023-04-18T05:45:49.435Z,9.02
2023-04-18T05:48:16.662Z,9.06
2023-04-18T05:50:43.260Z,9.19
2023-04-18T05:53:09.936Z,9.30
2023-04-18T05:55:37.043Z,9.24
2023-04-18T05:58:03.707Z,9.24
2023-04-18T06:00:31.161Z,9.60
2023-04-18T06:02:57.944Z,9.45
2023-04-18T06:05:24.937Z,9.15
2023-04-18T06:07:51.664Z,9.33
2023-04-18T06:10:18.338Z,9.56
2023-04-18T06:12:45.097Z,9.72
2023-04-18T06:15:11.956Z,9.99
2023-04-18T06:17:38.750Z,10.18
2023-04-18T06:20:06.611Z,10.23
2023-04-18T06:22:36.453Z,10.69
2023-04-18T06:25:03.535Z,10.63
2023-04-18T06:27:31.896Z,10.32
2023-04-18T06:29:59.181Z,10.50
2023-04-18T06:32:26.142Z,10.77
2023-04-18T06:34:53.304Z,11.01
2023-04-18T06:37:20.288Z,11.12
2023-04-18T06:39:47.222Z,11.28
2023-04-18T06:42:14.318Z,11.05
2023-04-18T06:44:43.051Z,10.86
2023-04-18T06:47:09.914Z,10.63
2023-04-18T06:49:36.678Z,10.68
2023-04-18T06:52:04.163Z,10.84
2023-04-18T06:54:30.966Z,10.75
2023-04-18T06:56:57.613Z,10.73
2023-04-18T06:59:24.235Z,10.67
2023-04-18T07:01:51.290Z,10.69
2023-04-18T07:04:18.606Z,10.68
2023-04-18T07:06:45.969Z,10.58
2023-04-18T07:09:12.773Z,10.68
2023-04-18T07:11:40.717Z,10.97
2023-04-18T07:14:07.491Z,10.71
2023-04-18T07:16:34.907Z,10.61
2023-04-18T07:19:01.517Z,10.57
2023-04-18T07:21:28.442Z,10.56
2023-04-18T07:23:55.420Z,10.52
2023-04-18T07:26:22.287Z,10.52
2023-04-18T07:28:49.456Z,10.55
2023-04-18T07:31:16.801Z,10.38
2023-04-18T07:33:43.862Z,10.48
2023-04-18T07:36:10.931Z,10.58
2023-04-18T07:38:37.874Z,10.77
2023-04-18T07:41:04.984Z,11.22
2023-04-18T07:43:31.791Z,11.40
2023-04-18T07:45:58.570Z,11.40
2023-04-18T07:48:25.527Z,11.95
2023-04-18T07:50:52.661Z,12.13
2023-04-18T07:53:19.630Z,11.76
2023-04-18T07:55:46.800Z,11.36
2023-04-18T07:58:13.681Z,11.64
2023-04-18T08:00:44.910Z,12.17
2023-04-18T08:03:15.123Z,12.34
2023-04-18T08:05:42.935Z,12.22
2023-04-18T08:08:11.632Z,11.78
2023-04-18T08:10:38.531Z,11.66
2023-04-18T08:13:05.307Z,11.79
2023-04-18T08:15:33.057Z,11.64
2023-04-18T08:18:01.089Z,11.51
2023-04-18T08:20:28.249Z,11.92
2023-04-18T08:25:24.568Z,11.79
2023-04-18T08:27:54.165Z,11.74
2023-04-18T08:30:21.249Z,11.65
2023-04-18T08:32:48.126Z,11.55
2023-04-18T08:35:14.849Z,11.13
2023-04-18T08:37:41.727Z,11.45
2023-04-18T08:40:09.057Z,11.34
2023-04-18T08:42:36.104Z,11.14
2023-04-18T08:45:02.988Z,11.11
2023-04-18T08:47:30.218Z,11.42
2023-04-18T08:49:57.622Z,11.84
2023-04-18T08:52:25.008Z,11.91
2023-04-18T08:54:52.022Z,12.10
2023-04-18T08:57:28.567Z,11.82
2023-04-18T08:59:55.563Z,12.17
2023-04-18T09:02:23.522Z,12.19
2023-04-18T09:04:53.337Z,12.13
2023-04-18T09:07:21.289Z,12.05
2023-04-18T09:09:53.063Z,11.83
2023-04-18T09:12:25.432Z,11.93
2023-04-18T09:14:56.646Z,12.02
2023-04-18T09:17:43.912Z,12.63
2023-04-18T09:20:11.568Z,12.48
2023-04-18T09:22:48.184Z,12.39
2023-04-18T09:25:26.134Z,12.00
2023-04-18T09:27:53.731Z,11.72
2023-04-18T09:30:38.071Z,12.27
2023-04-18T09:33:08.059Z,12.87
2023-04-18T09:35:34.938Z,12.88
2023-04-18T09:38:01.904Z,12.78
2023-04-18T09:40:28.796Z,13.02
2023-04-18T09:42:55.625Z,12.86
2023-04-18T09:45:23.761Z,12.88
2023-04-18T09:47:51.612Z,12.82
2023-04-18T09:50:20.354Z,12.94
2023-04-18T09:52:48.049Z,12.88
2023-04-18T09:55:17.745Z,13.02
2023-04-18T09:57:48.717Z,13.05
2023-04-18T10:00:24.179Z,13.29
2023-04-18T10:03:10.934Z,13.40
2023-04-18T10:05:40.628Z,13.35
2023-04-18T10:08:08.479Z,13.44
2023-04-18T10:10:38.546Z,13.45
2023-04-18T10:13:06.827Z,13.83
2023-04-18T10:15:33.578Z,13.50
2023-04-18T10:18:05.836Z,13.58
2023-04-18T10:20:35.191Z,13.08
2023-04-18T10:23:40.229Z,13.40
2023-04-18T10:26:10.954Z,13.34
2023-04-18T10:29:01.751Z,13.26
2023-04-18T10:31:29.420Z,13.20
2023-04-18T10:36:30.299Z,13.57
2023-04-18T10:39:21.261Z,13.23
2023-04-18T10:41:51.885Z,12.94
2023-04-18T10:44:21.959Z,12.74
2023-04-18T10:46:48.616Z,12.77
2023-04-18T10:49:53.097Z,12.71
2023-04-18T10:52:19.767Z,12.72
2023-04-18T10:54:58.386Z,12.67
2023-04-18T10:57:26.624Z,12.73
2023-04-18T10:59:54.956Z,12.68
2023-04-18T11:02:25.934Z,12.67
2023-04-18T11:05:06.691Z,12.56
2023-04-18T11:07:42.380Z,12.12
2023-04-18T11:10:09.906Z,12.28
2023-04-18T11:12:38.623Z,11.91
2023-04-18T11:15:25.633Z,11.74
2023-04-18T11:18:03.644Z,11.63
2023-04-18T11:20:38.115Z,11.54
2023-04-18T11:23:04.718Z,11.34
2023-04-18T11:25:34.566Z,11.05
2023-04-18T11:28:24.908Z,10.77
2023-04-18T11:30:52.066Z,10.64
2023-04-18T11:33:18.760Z,10.44
2023-04-18T11:35:46.448Z,10.44
2023-04-18T11:38:14.553Z,10.47
2023-04-18T11:40:52.988Z,10.40
2023-04-18T11:43:24.726Z,10.38
2023-04-18T11:45:55.873Z,10.41
2023-04-18T11:48:23.172Z,10.31
2023-04-18T11:50:50.036Z,10.01
2023-04-18T11:53:32.566Z,9.97
2023-04-18T11:55:59.952Z,9.94
2023-04-18T11:58:34.107Z,9.86
2023-04-18T12:01:21.799Z,9.75
2023-04-18T12:04:05.408Z,9.44
2023-04-18T12:06:49.316Z,9.05
2023-04-18T12:09:16.835Z,9.14
2023-04-18T12:11:50.119Z,8.99
2023-04-18T12:14:21.748Z,8.59
2023-04-18T12:16:51.881Z,8.66
2023-04-18T12:19:20.638Z,8.92
2023-04-18T12:22:00.409Z,8.82
2023-04-18T12:24:32.472Z,8.79
2023-04-18T12:26:59.589Z,8.40
2023-04-18T12:29:27.966Z,8.75
2023-04-18T12:31:55.058Z,8.54
2023-04-18T12:34:21.912Z,8.37
2023-04-18T12:36:48.747Z,8.38
2023-04-18T12:39:15.582Z,8.22
2023-04-18T12:41:42.237Z,8.39
2023-04-18T12:44:12.908Z,8.51
2023-04-18T12:46:39.797Z,8.51
2023-04-18T12:49:06.429Z,8.52
2023-04-18T12:51:33.116Z,8.48
2023-04-18T12:54:00.324Z,8.50
2023-04-18T12:56:27.014Z,8.62
2023-04-18T12:58:53.671Z,8.54
2023-04-18T13:01:21.189Z,8.48
2023-04-18T13:03:56.386Z,8.43
2023-04-18T13:06:27.403Z,8.44
2023-04-18T13:08:54.086Z,8.49
2023-04-18T13:11:22.493Z,8.50
2023-04-18T13:13:49.188Z,8.42
2023-04-18T13:16:16.287Z,8.32
2023-04-18T13:18:43.306Z,8.30
2023-04-18T13:21:09.922Z,8.32
2023-04-18T13:23:36.637Z,8.41
2023-04-18T13:26:03.623Z,8.42
2023-04-18T13:28:30.542Z,8.42
2023-04-18T13:30:57.203Z,8.53
2023-04-18T13:33:23.915Z,8.71
2023-04-18T13:35:50.713Z,8.74
2023-04-18T13:38:17.858Z,9.07
2023-04-18T13:40:44.537Z,9.04
2023-04-18T13:43:13.158Z,9.17
2023-04-18T13:45:39.914Z,9.60
2023-04-18T13:48:06.976Z,9.70
2023-04-18T13:50:33.844Z,9.68
2023-04-18T13:53:00.804Z,9.43
2023-04-18T13:55:30.629Z,9.64
2023-04-18T13:57:57.485Z,9.26
2023-04-18T14:00:24.204Z,9.68
2023-04-18T14:02:51.299Z,9.63
2023-04-18T14:05:24.126Z,9.56
2023-04-18T14:07:50.710Z,9.52
2023-04-18T14:10:17.367Z,9.34
2023-04-18T14:12:44.079Z,9.38
2023-04-18T14:15:11.485Z,9.11
2023-04-18T14:17:38.256Z,9.01
2023-04-18T14:20:05.924Z,8.95
2023-04-18T14:22:32.620Z,9.31
2023-04-18T14:24:59.375Z,9.42
2023-04-18T14:27:26.294Z,9.22
2023-04-18T14:29:53.015Z,9.09
2023-04-18T14:32:19.632Z,9.27
2023-04-18T14:34:46.350Z,9.27
2023-04-18T14:37:14.993Z,9.31
2023-04-18T14:39:42.270Z,9.47
2023-04-18T14:42:09.058Z,9.43
2023-04-18T14:44:35.835Z,9.43
2023-04-18T14:47:02.673Z,9.49
2023-04-18T14:49:34.066Z,9.33
2023-04-18T14:52:00.805Z,9.52
2023-04-18T14:54:27.502Z,9.45
2023-04-18T14:56:55.674Z,9.56
2023-04-18T14:59:22.338Z,9.37
2023-04-18T15:01:49.029Z,9.45
2023-04-18T15:04:16.174Z,9.65
2023-04-18T15:06:43.546Z,9.65
2023-04-18T15:09:10.843Z,9.81
2023-04-18T15:11:38.082Z,9.60
2023-04-18T15:14:04.661Z,9.71
2023-04-18T15:16:32.099Z,9.74
2023-04-18T15:19:00.547Z,9.79
2023-04-18T15:21:27.372Z,9.70
2023-04-18T15:23:54.092Z,9.65
2023-04-18T15:26:21.158Z,9.63
2023-04-18T15:28:47.908Z,9.66
2023-04-18T15:31:16.729Z,9.56
2023-04-18T15:33:43.488Z,9.57
2023-04-18T15:36:10.153Z,9.72
2023-04-18T15:38:42.858Z,9.55
2023-04-18T15:41:09.542Z,9.67
2023-04-18T15:43:36.177Z,9.63
2023-04-18T15:46:03.806Z,9.66
2023-04-18T15:48:34.252Z,9.69
2023-04-18T15:51:01.501Z,9.60
2023-04-18T15:53:28.653Z,9.63
2023-04-18T15:55:55.501Z,9.64
2023-04-18T15:58:22.308Z,9.77
2023-04-18T16:00:52.284Z,9.76
2023-04-18T16:03:19.010Z,9.68
2023-04-18T16:05:47.861Z,9.75
2023-04-18T16:08:14.516Z,9.83
2023-04-18T16:10:41.622Z,9.78
2023-04-18T16:13:08.300Z,9.71
2023-04-18T16:15:37.652Z,9.83
2023-04-18T16:18:04.488Z,9.72
2023-04-18T16:20:33.408Z,9.74
2023-04-18T16:23:00.549Z,9.88
2023-04-18T16:25:33.678Z,9.88
2023-04-18T16:28:00.709Z,9.84
2023-04-18T16:30:27.332Z,9.90
2023-04-18T16:32:54.633Z,9.78
2023-04-18T16:35:21.358Z,9.84
2023-04-18T16:37:48.750Z,9.88
2023-04-18T16:40:15.502Z,9.90
2023-04-18T16:42:42.166Z,9.93
2023-04-18T16:45:17.666Z,9.95
2023-04-18T16:47:44.745Z,9.94
2023-04-18T16:50:11.542Z,9.60
2023-04-18T16:52:38.236Z,9.75
2023-04-18T16:55:05.270Z,9.88
2023-04-18T16:57:32.024Z,9.83
2023-04-18T17:00:01.890Z,9.87
2023-04-18T17:02:28.758Z,9.92
2023-04-18T17:04:55.669Z,9.81
2023-04-18T17:07:22.661Z,9.88
2023-04-18T17:09:49.697Z,9.88
2023-04-18T17:12:16.409Z,9.85
2023-04-18T17:14:43.081Z,9.84
2023-04-18T17:17:09.703Z,9.81
2023-04-18T17:19:36.795Z,9.87
2023-04-18T17:22:03.508Z,9.91
2023-04-18T17:24:30.118Z,9.89
2023-04-18T17:26:58.016Z,9.66
2023-04-18T17:29:25.351Z,9.86
2023-04-18T17:31:53.277Z,9.91
2023-04-18T17:34:20.431Z,9.96
2023-04-18T17:36:47.346Z,9.92
2023-04-18T17:39:16.453Z,9.81
2023-04-18T17:41:43.283Z,9.80
2023-04-18T17:44:10.485Z,9.97
2023-04-18T17:46:37.735Z,9.89
2023-04-18T17:49:04.875Z,9.89
2023-04-18T17:51:31.547Z,9.89
2023-04-18T17:53:58.404Z,9.93
2023-04-18T17:56:25.192Z,9.84
2023-04-18T17:58:56.714Z,9.94
2023-04-18T18:01:24.925Z,9.79
2023-04-18T18:03:53.786Z,9.90
2023-04-18T18:06:21.108Z,9.77
2023-04-18T18:08:47.876Z,9.79
2023-04-18T18:11:14.975Z,9.84
2023-04-18T18:13:41.714Z,9.76
2023-04-18T18:16:09.116Z,9.76
2023-04-18T18:18:36.489Z,9.76
2023-04-18T18:21:03.224Z,9.72
2023-04-18T18:23:29.868Z,9.63
2023-04-18T18:25:56.669Z,9.77
2023-04-18T18:28:23.357Z,9.86
2023-04-18T18:30:50.195Z,9.70
2023-04-18T18:33:17.152Z,9.77
2023-04-18T18:35:44.019Z,9.80
2023-04-18T18:38:10.685Z,9.58
2023-04-18T18:40:37.650Z,9.53
2023-04-18T18:43:04.342Z,9.63
2023-04-18T18:45:31.016Z,9.66
2023-04-18T18:47:57.756Z,9.63
2023-04-18T18:50:24.403Z,9.62
2023-04-18T18:52:51.105Z,9.46
2023-04-18T18:55:17.882Z,9.46
2023-04-18T18:57:47.953Z,9.59
2023-04-18T19:00:14.843Z,9.51
2023-04-18T19:02:41.784Z,9.58
2023-04-18T19:05:09.191Z,9.55
2023-04-18T19:07:35.834Z,9.57
2023-04-18T19:10:03.765Z,9.59
2023-04-18T19:12:30.494Z,9.57
2023-04-18T19:14:57.160Z,9.43
2023-04-18T19:17:24.925Z,9.57
2023-04-18T19:19:52.841Z,9.66
2023-04-18T19:22:19.587Z,9.57
2023-04-18T19:24:46.312Z,9.51
2023-04-18T19:27:13.371Z,9.40
2023-04-18T19:29:40.092Z,9.50
2023-04-18T19:32:07.179Z,9.52
2023-04-18T19:34:33.841Z,9.71
2023-04-18T19:37:01.390Z,9.66
2023-04-18T19:39:28.338Z,9.54
2023-04-18T19:41:55.047Z,9.61
2023-04-18T19:44:25.055Z,9.65
2023-04-18T19:46:51.776Z,9.58
2023-04-18T19:49:18.498Z,9.66
2023-04-18T19:51:45.369Z,9.63
2023-04-18T19:54:12.368Z,9.79
2023-04-18T19:56:39.111Z,9.78
2023-04-18T19:59:06.192Z,9.86
2023-04-18T20:01:32.899Z,9.81
2023-04-18T20:04:00.672Z,9.73
2023-04-18T20:06:28.435Z,9.81
2023-04-18T20:08:55.491Z,9.79
2023-04-18T20:11:22.400Z,9.90
2023-04-18T20:13:49.445Z,9.87
2023-04-18T20:16:17.002Z,9.84
2023-04-18T20:18:45.728Z,9.89
2023-04-18T20:21:12.392Z,9.88
2023-04-18T20:23:41.756Z,9.85
2023-04-18T20:26:09.287Z,9.83
2023-04-18T20:28:38.005Z,9.83
2023-04-18T20:31:05.049Z,9.83
2023-04-18T20:33:31.765Z,9.77
2023-04-18T20:35:59.041Z,9.91
2023-04-18T20:38:29.710Z,9.89
2023-04-18T20:41:00.839Z,9.99
2023-04-18T20:43:28.088Z,9.98
2023-04-18T20:45:57.730Z,9.93
2023-04-18T20:48:24.549Z,9.87
2023-04-18T20:50:51.677Z,10.04
2023-04-18T20:53:21.045Z,10.17
2023-04-18T20:55:48.428Z,10.33
2023-04-18T20:58:15.063Z,10.25
2023-04-18T21:00:41.886Z,10.08
2023-04-18T21:03:08.953Z,10.02
2023-04-18T21:05:36.134Z,9.96
2023-04-18T21:08:02.871Z,9.97
2023-04-18T21:10:29.530Z,10.08
2023-04-18T21:12:56.168Z,9.97
2023-04-18T21:15:22.975Z,10.09
2023-04-18T21:17:51.217Z,10.12
2023-04-18T21:20:18.341Z,10.12
2023-04-18T21:22:44.985Z,10.37
2023-04-18T21:25:11.933Z,10.39
2023-04-18T21:27:38.637Z,10.30
2023-04-18T21:30:06.475Z,10.26
2023-04-18T21:32:33.468Z,10.12
2023-04-18T21:35:01.245Z,10.24
2023-04-18T21:37:27.854Z,10.11
2023-04-18T21:39:54.819Z,10.24
2023-04-18T21:42:21.464Z,10.13
2023-04-18T21:44:48.078Z,10.04
2023-04-18T21:47:14.758Z,10.05
2023-04-18T21:49:41.999Z,9.93
2023-04-18T21:52:09.327Z,9.85
2023-04-18T21:54:36.006Z,9.89
2023-04-18T21:57:02.894Z,9.80
2023-04-18T21:59:29.981Z,9.76
2023-04-18T22:01:56.686Z,9.84
2023-04-18T22:04:26.669Z,9.80
2023-04-18T22:06:54.306Z,9.75
2023-04-18T22:09:21.465Z,9.79
2023-04-18T22:11:48.570Z,9.79
2023-04-18T22:14:20.131Z,9.75
2023-04-18T22:16:46.783Z,9.72
2023-04-18T22:19:14.254Z,9.75
2023-04-18T22:21:40.943Z,9.66
2023-04-18T22:24:08.424Z,9.69
2023-04-18T22:26:35.504Z,9.67
2023-04-18T22:29:02.161Z,9.52
2023-04-18T22:31:29.123Z,9.40
2023-04-18T22:33:56.020Z,9.47
2023-04-18T22:36:22.665Z,9.60
2023-04-18T22:38:52.382Z,9.64
2023-04-18T22:41:19.063Z,9.61
2023-04-18T22:43:45.823Z,9.59
2023-04-18T22:46:12.547Z,9.58
2023-04-18T22:48:39.246Z,9.46
2023-04-18T22:51:06.466Z,9.54
2023-04-18T22:53:33.080Z,9.53
2023-04-18T22:55:59.747Z,9.51
2023-04-18T22:58:26.484Z,9.60
2023-04-18T23:00:53.229Z,9.57
2023-04-18T23:03:20.106Z,9.57
2023-04-18T23:05:46.837Z,9.53
2023-04-18T23:08:13.560Z,9.42
2023-04-18T23:10:40.260Z,9.46
2023-04-18T23:13:16.216Z,9.51
2023-04-18T23:15:43.254Z,9.39
2023-04-18T23:18:10.063Z,9.50
2023-04-18T23:20:37.895Z,9.40
2023-04-18T23:23:04.610Z,9.48
2023-04-18T23:25:34.533Z,9.47
2023-04-18T23:28:01.426Z,9.47
2023-04-18T23:30:28.162Z,9.47
2023-04-18T23:32:55.085Z,9.55
2023-04-18T23:35:21.788Z,9.59
2023-04-18T23:37:54.022Z,9.61
2023-04-18T23:40:20.861Z,9.19
2023-04-18T23:42:47.645Z,9.46
2023-04-18T23:45:14.271Z,9.61
2023-04-18T23:47:41.046Z,9.52
2023-04-18T23:50:08.991Z,9.58
2023-04-18T23:52:35.646Z,9.57
2023-04-18T23:55:02.488Z,9.47
2023-04-18T23:57:29.199Z,9.51
2023-04-18T23:59:55.857Z,9.34
